createdAt,value
2022-07-30T00:02:11.459Z,75.00
2022-07-30T00:04:41.040Z,75.00
2022-07-30T00:07:09.205Z,75.10
2022-07-30T00:09:37.303Z,75.20
2022-07-30T00:12:05.848Z,75.30
2022-07-30T00:14:34.949Z,75.30
2022-07-30T00:17:04.131Z,75.50
2022-07-30T00:19:32.589Z,75.70
2022-07-30T00:22:02.117Z,75.80
2022-07-30T00:24:30.427Z,76.00
2022-07-30T00:26:58.869Z,76.00
2022-07-30T00:29:27.473Z,76.20
2022-07-30T00:31:55.570Z,76.20
2022-07-30T00:34:23.668Z,76.30
2022-07-30T00:36:51.805Z,76.30
2022-07-30T00:39:21.324Z,76.20
2022-07-30T00:41:58.086Z,76.40
2022-07-30T00:44:26.272Z,76.50
2022-07-30T00:46:54.911Z,76.60
2022-07-30T00:49:23.762Z,76.70
2022-07-30T00:51:52.033Z,76.70
2022-07-30T00:54:22.331Z,76.70
2022-07-30T00:56:50.991Z,76.90
2022-07-30T00:59:19.214Z,76.90
2022-07-30T01:01:47.516Z,77.00
2022-07-30T01:04:15.728Z,77.10
2022-07-30T01:06:43.850Z,77.20
2022-07-30T01:09:12.254Z,77.20
2022-07-30T01:11:43.499Z,77.30
2022-07-30T01:14:12.304Z,77.40
2022-07-30T01:16:42.849Z,77.40
2022-07-30T01:19:33.336Z,77.50
2022-07-30T01:22:10.188Z,77.70
2022-07-30T01:24:42.835Z,77.90
2022-07-30T01:27:18.005Z,78.00
2022-07-30T01:29:49.213Z,78.00
2022-07-30T01:32:18.919Z,78.20
2022-07-30T01:34:48.124Z,78.30
2022-07-30T01:37:17.826Z,78.40
2022-07-30T01:39:50.825Z,78.50
2022-07-30T01:42:22.076Z,78.50
2022-07-30T01:44:51.193Z,78.80
2022-07-30T01:47:21.026Z,78.80
2022-07-30T01:49:52.816Z,78.90
2022-07-30T01:52:21.880Z,78.90
2022-07-30T01:54:53.505Z,79.00
2022-07-30T01:57:24.281Z,79.20
2022-07-30T01:59:56.005Z,79.30
2022-07-30T02:02:24.268Z,79.50
2022-07-30T02:04:52.469Z,80.30
2022-07-30T02:07:24.974Z,79.70
2022-07-30T02:09:57.345Z,79.90
2022-07-30T02:12:31.588Z,80.00
2022-07-30T02:15:10.216Z,80.00
2022-07-30T02:17:44.918Z,80.10
2022-07-30T02:20:15.608Z,80.10
2022-07-30T02:22:46.430Z,80.20
2022-07-30T02:25:19.730Z,80.20
2022-07-30T02:27:53.899Z,80.30
2022-07-30T02:30:26.996Z,80.40
2022-07-30T02:33:00.473Z,80.40
2022-07-30T02:35:32.759Z,80.60
2022-07-30T02:38:03.124Z,80.60
2022-07-30T02:40:31.635Z,80.60
2022-07-30T02:43:02.364Z,80.70
2022-07-30T02:45:31.547Z,80.70
2022-07-30T02:48:02.362Z,80.80
2022-07-30T02:50:32.072Z,80.80
2022-07-30T02:53:01.888Z,80.90
2022-07-30T02:55:33.585Z,81.00
2022-07-30T02:58:05.136Z,81.00
2022-07-30T03:00:34.798Z,81.10
2022-07-30T03:03:06.000Z,81.10
2022-07-30T03:05:35.817Z,81.30
2022-07-30T03:08:04.423Z,81.30
2022-07-30T03:10:33.771Z,81.30
2022-07-30T03:13:05.531Z,81.40
2022-07-30T03:15:39.399Z,81.60
2022-07-30T03:18:11.421Z,81.60
2022-07-30T03:20:40.608Z,81.50
2022-07-30T03:23:10.055Z,81.60
2022-07-30T03:25:38.669Z,81.60
2022-07-30T03:28:09.291Z,82.20
2022-07-30T03:30:37.841Z,81.60
2022-07-30T03:33:07.488Z,81.60
2022-07-30T03:35:36.514Z,81.50
2022-07-30T03:38:06.820Z,82.40
2022-07-30T03:40:35.994Z,81.60
2022-07-30T03:43:04.745Z,81.60
2022-07-30T03:45:49.955Z,82.50
2022-07-30T03:48:18.247Z,81.80
2022-07-30T03:50:47.629Z,81.80
2022-07-30T03:53:16.733Z,81.80
2022-07-30T03:55:45.264Z,81.80
2022-07-30T03:58:13.405Z,82.50
2022-07-30T04:00:41.919Z,81.80
2022-07-30T04:03:12.377Z,82.00
2022-07-30T04:05:41.350Z,82.00
2022-07-30T04:08:09.880Z,82.10
2022-07-30T04:10:38.122Z,82.30
2022-07-30T04:13:09.430Z,82.50
2022-07-30T04:16:36.960Z,83.20
2022-07-30T04:18:41.403Z,83.40
2022-07-30T04:21:16.079Z,82.70
2022-07-30T04:24:01.609Z,82.70
2022-07-30T04:26:34.470Z,82.50
2022-07-30T04:29:05.419Z,82.50
2022-07-30T04:31:40.690Z,82.50
2022-07-30T04:34:14.361Z,82.40
2022-07-30T04:36:43.737Z,82.40
2022-07-30T04:39:12.155Z,82.30
2022-07-30T04:41:48.618Z,82.30
2022-07-30T04:44:18.851Z,82.30
2022-07-30T04:46:47.192Z,82.30
2022-07-30T04:49:18.936Z,82.40
2022-07-30T04:51:47.746Z,82.30
2022-07-30T04:54:17.147Z,82.40
2022-07-30T04:56:52.522Z,82.30
2022-07-30T04:59:29.580Z,82.10
2022-07-30T05:02:00.039Z,82.30
2022-07-30T05:04:31.812Z,82.10
2022-07-30T05:07:01.400Z,82.20
2022-07-30T05:09:31.027Z,82.20
2022-07-30T05:11:59.616Z,82.40
2022-07-30T05:14:28.637Z,82.50
2022-07-30T05:16:56.987Z,83.40
2022-07-30T05:19:25.257Z,82.70
2022-07-30T05:21:55.055Z,82.70
2022-07-30T05:24:23.229Z,82.70
2022-07-30T05:26:51.479Z,82.70
2022-07-30T05:29:20.385Z,82.80
2022-07-30T05:31:49.305Z,83.50
2022-07-30T05:34:17.821Z,82.90
2022-07-30T05:36:46.232Z,83.00
2022-07-30T05:39:16.873Z,82.90
2022-07-30T05:41:44.974Z,82.80
2022-07-30T05:44:13.068Z,82.80
2022-07-30T05:46:41.682Z,82.70
2022-07-30T05:49:10.022Z,82.90
2022-07-30T05:51:38.214Z,83.10
2022-07-30T05:54:06.696Z,83.20
2022-07-30T05:56:36.351Z,83.40
2022-07-30T05:59:04.592Z,84.10
2022-07-30T06:01:32.770Z,83.50
2022-07-30T06:04:01.065Z,83.20
2022-07-30T06:06:29.246Z,83.20
2022-07-30T06:08:57.366Z,83.10
2022-07-30T06:11:25.466Z,83.20
2022-07-30T06:13:55.004Z,83.40
2022-07-30T06:16:23.279Z,83.50
2022-07-30T06:18:51.403Z,83.50
2022-07-30T06:21:19.485Z,83.30
2022-07-30T06:23:47.645Z,83.40
2022-07-30T06:26:15.762Z,83.10
2022-07-30T06:28:43.902Z,83.20
2022-07-30T06:31:13.567Z,83.20
2022-07-30T06:33:41.671Z,83.30
2022-07-30T06:36:14.021Z,83.30
2022-07-30T06:38:42.688Z,83.50
2022-07-30T06:41:11.275Z,83.50
2022-07-30T06:43:39.626Z,83.70
2022-07-30T06:46:08.090Z,83.70
2022-07-30T06:48:38.102Z,83.80
2022-07-30T06:51:06.249Z,83.80
2022-07-30T06:53:42.407Z,84.60
2022-07-30T06:56:11.121Z,83.90
2022-07-30T06:58:39.306Z,83.90
2022-07-30T07:01:11.341Z,84.00
2022-07-30T07:03:41.205Z,84.20
2022-07-30T07:06:09.910Z,84.20
2022-07-30T07:08:38.728Z,84.20
2022-07-30T07:11:06.938Z,84.10
2022-07-30T07:13:35.078Z,83.90
2022-07-30T07:16:03.237Z,83.90
2022-07-30T07:18:31.360Z,83.90
2022-07-30T07:21:00.896Z,83.90
2022-07-30T07:23:41.373Z,84.40
2022-07-30T07:26:11.440Z,83.50
2022-07-30T07:28:40.181Z,83.00
2022-07-30T07:31:08.501Z,82.80
2022-07-30T07:33:36.727Z,82.80
2022-07-30T07:36:06.844Z,83.10
2022-07-30T07:38:35.117Z,83.20
2022-07-30T07:41:03.424Z,82.90
2022-07-30T07:43:31.514Z,83.10
2022-07-30T07:46:00.441Z,83.20
2022-07-30T07:48:28.580Z,83.10
2022-07-30T07:51:00.060Z,83.20
2022-07-30T07:53:29.982Z,83.20
2022-07-30T07:55:58.768Z,83.20
2022-07-30T07:58:28.066Z,83.90
2022-07-30T08:00:57.716Z,83.10
2022-07-30T08:03:25.847Z,83.00
2022-07-30T08:06:05.543Z,82.80
2022-07-30T08:08:37.207Z,82.70
2022-07-30T08:11:07.100Z,82.50
2022-07-30T08:13:51.704Z,82.00
2022-07-30T08:16:21.277Z,81.80
2022-07-30T08:18:49.925Z,81.70
2022-07-30T08:21:18.081Z,81.60
2022-07-30T08:23:47.648Z,82.30
2022-07-30T08:26:15.761Z,81.60
2022-07-30T08:28:45.734Z,81.60
2022-07-30T08:31:13.992Z,81.50
2022-07-30T08:33:42.079Z,81.40
2022-07-30T08:36:10.466Z,80.80
2022-07-30T08:38:39.467Z,80.50
2022-07-30T08:41:09.277Z,80.70
2022-07-30T08:43:38.411Z,80.80
2022-07-30T08:46:10.514Z,80.50
2022-07-30T08:48:39.029Z,80.90
2022-07-30T08:51:07.986Z,81.00
2022-07-30T08:53:36.729Z,81.10
2022-07-30T08:56:06.157Z,79.60
2022-07-30T08:58:36.190Z,80.00
2022-07-30T09:01:06.142Z,81.20
2022-07-30T09:03:34.970Z,80.40
2022-07-30T09:06:04.696Z,79.80
2022-07-30T09:08:33.722Z,79.70
2022-07-30T09:11:01.964Z,80.20
2022-07-30T09:13:34.562Z,80.00
2022-07-30T09:16:05.416Z,79.80
2022-07-30T09:18:35.624Z,79.40
2022-07-30T09:21:16.445Z,79.10
2022-07-30T09:23:57.764Z,78.10
2022-07-30T09:26:26.139Z,78.50
2022-07-30T09:28:55.108Z,78.90
2022-07-30T09:31:24.924Z,78.20
2022-07-30T09:33:53.015Z,78.20
2022-07-30T09:36:21.113Z,78.80
2022-07-30T09:38:51.632Z,78.70
2022-07-30T09:41:41.536Z,78.70
2022-07-30T09:44:09.720Z,78.30
2022-07-30T09:46:47.719Z,78.00
2022-07-30T09:49:17.135Z,78.00
2022-07-30T09:51:54.413Z,78.30
2022-07-30T09:54:25.333Z,78.00
2022-07-30T09:57:22.709Z,77.00
2022-07-30T09:59:56.657Z,77.60
2022-07-30T10:02:33.083Z,77.50
2022-07-30T10:05:16.212Z,77.90
2022-07-30T10:07:52.646Z,77.60
2022-07-30T10:10:25.596Z,77.90
2022-07-30T10:12:58.757Z,77.80
2022-07-30T10:15:32.370Z,77.60
2022-07-30T10:18:03.026Z,77.40
2022-07-30T10:20:35.428Z,77.10
2022-07-30T10:23:08.781Z,76.40
2022-07-30T10:25:49.024Z,77.80
2022-07-30T10:28:24.187Z,76.80
2022-07-30T10:30:53.327Z,76.80
2022-07-30T10:33:34.522Z,77.20
2022-07-30T10:36:05.244Z,77.40
2022-07-30T10:38:39.171Z,76.80
2022-07-30T10:41:42.132Z,76.90
2022-07-30T10:44:31.530Z,76.50
2022-07-30T10:47:07.890Z,76.80
2022-07-30T10:49:41.366Z,75.80
2022-07-30T10:52:12.106Z,75.10
2022-07-30T10:54:44.494Z,75.30
2022-07-30T10:57:26.587Z,75.60
2022-07-30T11:00:13.550Z,75.20
2022-07-30T11:03:15.890Z,74.60
2022-07-30T11:05:46.853Z,75.10
2022-07-30T11:08:36.145Z,74.90
2022-07-30T11:11:19.420Z,74.30
2022-07-30T11:13:54.640Z,74.60
2022-07-30T11:16:24.335Z,73.90
2022-07-30T11:19:55.905Z,73.70
2022-07-30T11:22:24.900Z,73.60
2022-07-30T11:24:53.681Z,73.90
2022-07-30T11:27:41.996Z,74.00
2022-07-30T11:30:35.093Z,73.90
2022-07-30T11:33:32.934Z,73.80
2022-07-30T11:36:10.670Z,72.90
2022-07-30T11:39:05.412Z,72.30
2022-07-30T11:41:35.524Z,71.70
2022-07-30T11:44:26.723Z,73.20
2022-07-30T11:46:55.144Z,72.70
2022-07-30T11:49:23.283Z,72.60
2022-07-30T11:51:52.108Z,72.30
2022-07-30T11:54:21.659Z,72.30
2022-07-30T11:56:51.664Z,72.90
2022-07-30T11:59:20.042Z,72.50
2022-07-30T12:01:51.789Z,72.60
2022-07-30T12:04:20.742Z,71.80
2022-07-30T12:06:49.990Z,71.60
2022-07-30T12:09:28.876Z,71.10
2022-07-30T12:11:57.779Z,70.40
2022-07-30T12:14:26.381Z,70.60
2022-07-30T12:16:55.672Z,71.10
2022-07-30T12:19:23.781Z,70.80
2022-07-30T12:21:53.576Z,71.20
2022-07-30T12:24:27.648Z,70.90
2022-07-30T12:27:06.596Z,70.80
2022-07-30T12:29:35.748Z,70.60
2022-07-30T12:32:04.588Z,69.90
2022-07-30T12:34:33.834Z,70.40
2022-07-30T12:37:10.170Z,70.20
2022-07-30T12:39:40.545Z,70.00
2022-07-30T12:42:09.174Z,70.30
2022-07-30T12:44:39.529Z,71.00
2022-07-30T12:47:20.200Z,71.30
2022-07-30T12:49:50.042Z,70.30
2022-07-30T12:52:27.569Z,70.50
2022-07-30T12:55:08.755Z,71.00
2022-07-30T12:57:56.713Z,70.70
2022-07-30T13:00:26.747Z,70.70
2022-07-30T13:02:56.271Z,69.80
2022-07-30T13:05:48.754Z,69.70
2022-07-30T13:08:17.376Z,70.20
2022-07-30T13:11:01.671Z,69.70
2022-07-30T13:13:31.020Z,69.50
2022-07-30T13:16:01.321Z,69.80
2022-07-30T13:18:29.773Z,70.00
2022-07-30T13:20:57.991Z,69.80
2022-07-30T13:23:26.685Z,70.80
2022-07-30T13:25:55.060Z,70.00
2022-07-30T13:28:26.095Z,68.40
2022-07-30T13:30:54.171Z,67.90
2022-07-30T13:33:22.446Z,67.20
2022-07-30T13:35:50.574Z,67.40
2022-07-30T13:38:18.759Z,67.90
2022-07-30T13:40:46.933Z,68.50
2022-07-30T13:43:15.216Z,67.80
2022-07-30T13:45:44.731Z,68.00
2022-07-30T13:48:12.867Z,68.30
2022-07-30T13:50:41.289Z,68.80
2022-07-30T13:53:10.202Z,68.70
2022-07-30T13:55:39.375Z,68.40
2022-07-30T13:58:07.914Z,68.10
2022-07-30T14:00:37.401Z,68.10
2022-07-30T14:03:08.231Z,68.70
2022-07-30T14:05:42.358Z,67.80
2022-07-30T14:08:12.035Z,66.70
2022-07-30T14:10:41.015Z,66.80
2022-07-30T14:13:19.181Z,66.30
2022-07-30T14:15:49.759Z,66.20
2022-07-30T14:18:19.345Z,66.50
2022-07-30T14:20:49.414Z,66.70
2022-07-30T14:23:17.719Z,66.90
2022-07-30T14:25:46.048Z,65.60
2022-07-30T14:28:14.500Z,66.00
2022-07-30T14:30:42.805Z,66.70
2022-07-30T14:33:11.104Z,66.70
2022-07-30T14:35:40.602Z,66.70
2022-07-30T14:38:08.763Z,66.30
2022-07-30T14:40:36.882Z,65.80
2022-07-30T14:43:05.867Z,66.00
2022-07-30T14:45:36.599Z,66.10
2022-07-30T14:48:05.368Z,66.40
2022-07-30T14:50:39.331Z,66.40
2022-07-30T14:53:21.837Z,66.60
2022-07-30T14:55:50.914Z,66.30
2022-07-30T14:58:19.060Z,66.20
2022-07-30T15:00:48.804Z,66.00
2022-07-30T15:03:17.500Z,65.60
2022-07-30T15:05:49.084Z,65.50
2022-07-30T15:08:21.809Z,65.60
2022-07-30T15:10:49.932Z,65.30
2022-07-30T15:13:18.117Z,65.60
2022-07-30T15:15:47.735Z,66.00
2022-07-30T15:18:16.091Z,66.30
2022-07-30T15:20:44.236Z,66.00
2022-07-30T15:23:13.608Z,66.70
2022-07-30T15:25:44.024Z,66.30
2022-07-30T15:28:12.306Z,66.20
2022-07-30T15:30:41.309Z,65.30
2022-07-30T15:33:09.653Z,63.90
2022-07-30T15:35:38.358Z,64.10
2022-07-30T15:38:06.488Z,64.80
2022-07-30T15:40:34.827Z,64.40
2022-07-30T15:43:08.567Z,63.90
2022-07-30T15:45:55.281Z,62.90
2022-07-30T15:48:24.978Z,62.00
2022-07-30T15:51:00.698Z,62.00
2022-07-30T15:53:29.845Z,62.90
2022-07-30T15:55:58.369Z,63.30
2022-07-30T15:58:28.161Z,62.50
2022-07-30T16:00:56.344Z,61.90
2022-07-30T16:03:24.592Z,62.90
2022-07-30T16:05:53.079Z,62.00
2022-07-30T16:08:21.500Z,60.70
2022-07-30T16:10:49.848Z,59.80
2022-07-30T16:13:18.111Z,59.90
2022-07-30T16:15:47.644Z,59.60
2022-07-30T16:18:15.761Z,59.90
2022-07-30T16:20:43.844Z,60.40
2022-07-30T16:23:14.933Z,60.90
2022-07-30T16:25:45.158Z,61.20
2022-07-30T16:28:13.239Z,61.30
2022-07-30T16:30:51.230Z,60.20
2022-07-30T16:33:21.589Z,60.00
2022-07-30T16:35:51.007Z,59.20
2022-07-30T16:38:20.250Z,59.30
2022-07-30T16:40:48.698Z,59.50
2022-07-30T16:43:19.845Z,59.70
2022-07-30T16:45:48.270Z,59.40
2022-07-30T16:48:16.677Z,59.70
2022-07-30T16:50:46.368Z,59.00
2022-07-30T16:53:14.933Z,58.60
2022-07-30T16:55:43.352Z,58.90
2022-07-30T16:58:11.655Z,58.60
2022-07-30T17:00:40.831Z,58.20
2022-07-30T17:03:09.291Z,58.20
2022-07-30T17:05:45.259Z,58.10
2022-07-30T17:08:15.328Z,58.50
2022-07-30T17:10:46.471Z,58.30
2022-07-30T17:13:18.311Z,58.60
2022-07-30T17:15:46.936Z,58.40
2022-07-30T17:18:15.392Z,57.70
2022-07-30T17:20:44.149Z,57.60
2022-07-30T17:23:12.387Z,56.80
2022-07-30T17:25:42.057Z,56.50
2022-07-30T17:28:10.260Z,57.60
2022-07-30T17:30:38.432Z,57.00
2022-07-30T17:33:06.622Z,57.10
2022-07-30T17:35:35.051Z,57.10
2022-07-30T17:38:03.213Z,57.70
2022-07-30T17:40:32.109Z,58.00
2022-07-30T17:43:04.660Z,57.60
2022-07-30T17:45:34.374Z,57.70
2022-07-30T17:48:02.839Z,57.60
2022-07-30T17:50:32.331Z,57.30
2022-07-30T17:53:00.676Z,57.50
2022-07-30T17:55:35.012Z,57.90
2022-07-30T17:58:05.299Z,58.20
2022-07-30T18:00:34.795Z,58.40
2022-07-30T18:03:03.530Z,58.70
2022-07-30T18:05:31.686Z,58.90
2022-07-30T18:07:59.854Z,58.90
2022-07-30T18:10:27.969Z,58.90
2022-07-30T18:12:56.260Z,59.00
2022-07-30T18:15:25.940Z,59.40
2022-07-30T18:17:54.568Z,59.70
2022-07-30T18:20:22.847Z,60.00
2022-07-30T18:22:51.481Z,60.00
2022-07-30T18:25:20.054Z,59.80
2022-07-30T18:27:48.600Z,60.00
2022-07-30T18:30:16.770Z,60.00
2022-07-30T18:32:46.785Z,60.30
2022-07-30T18:35:15.525Z,60.60
2022-07-30T18:37:43.788Z,60.80
2022-07-30T18:40:13.489Z,61.20
2022-07-30T18:42:42.076Z,61.50
2022-07-30T18:45:13.889Z,61.80
2022-07-30T18:47:42.745Z,62.00
2022-07-30T18:50:13.398Z,62.30
2022-07-30T18:52:42.328Z,62.40
2022-07-30T18:55:12.554Z,62.70
2022-07-30T18:57:41.782Z,62.80
2022-07-30T19:00:35.282Z,63.00
2022-07-30T19:03:02.688Z,63.10
2022-07-30T19:05:32.433Z,63.20
2022-07-30T19:08:00.572Z,63.40
2022-07-30T19:10:28.884Z,63.60
2022-07-30T19:12:57.303Z,63.70
2022-07-30T19:15:25.705Z,64.00
2022-07-30T19:17:53.856Z,64.00
2022-07-30T19:20:23.417Z,64.20
2022-07-30T19:23:00.663Z,64.40
2022-07-30T19:25:29.290Z,64.60
2022-07-30T19:27:57.585Z,64.80
2022-07-30T19:30:25.913Z,64.90
2022-07-30T19:32:54.133Z,65.30
2022-07-30T19:35:22.410Z,65.20
2022-07-30T19:37:51.898Z,65.40
2022-07-30T19:40:20.240Z,65.60
2022-07-30T19:42:48.384Z,65.90
2022-07-30T19:45:21.775Z,66.10
2022-07-30T19:47:50.449Z,66.00
2022-07-30T19:50:18.571Z,66.30
2022-07-30T19:52:51.493Z,66.50
2022-07-30T19:55:35.136Z,66.70
2022-07-30T19:58:04.642Z,66.90
2022-07-30T20:00:49.402Z,67.10
2022-07-30T20:06:08.411Z,67.60
2022-07-30T20:08:44.819Z,67.90
2022-07-30T20:11:20.930Z,68.10
2022-07-30T20:14:02.767Z,68.30
2022-07-30T20:16:30.976Z,68.70
2022-07-30T20:18:59.293Z,68.90
2022-07-30T20:21:56.066Z,69.20
2022-07-30T20:24:17.721Z,70.40
2022-07-30T20:26:47.281Z,69.90
2022-07-30T20:29:19.392Z,70.20
2022-07-30T20:31:49.778Z,70.40
2022-07-30T20:34:23.377Z,70.70
2022-07-30T20:36:52.435Z,71.10
2022-07-30T20:39:22.154Z,71.30
2022-07-30T20:42:07.573Z,71.60
2022-07-30T20:44:36.981Z,71.80
2022-07-30T20:47:08.355Z,72.10
2022-07-30T20:49:37.256Z,72.40
2022-07-30T20:52:06.747Z,72.70
2022-07-30T20:54:35.145Z,73.00
2022-07-30T20:57:06.401Z,73.20
2022-07-30T20:59:35.605Z,73.50
2022-07-30T21:02:06.449Z,73.70
2022-07-30T21:04:39.033Z,73.90
2022-07-30T21:07:08.612Z,74.00
2022-07-30T21:09:49.955Z,74.30
2022-07-30T21:12:32.595Z,74.60
2022-07-30T21:15:01.575Z,74.80
2022-07-30T21:17:29.771Z,75.00
2022-07-30T21:19:58.465Z,75.30
2022-07-30T21:22:26.595Z,75.40
2022-07-30T21:24:54.696Z,75.70
2022-07-30T21:27:24.327Z,76.10
2022-07-30T21:29:58.147Z,76.20
2022-07-30T21:32:26.788Z,76.40
2022-07-30T21:34:54.974Z,76.60
2022-07-30T21:37:23.136Z,76.70
2022-07-30T21:40:05.851Z,76.90
2022-07-30T21:42:35.600Z,77.90
2022-07-30T21:45:03.786Z,77.60
2022-07-30T21:47:31.969Z,77.60
2022-07-30T21:50:00.232Z,77.80
2022-07-30T21:52:29.415Z,77.90
2022-07-30T21:54:58.532Z,78.20
2022-07-30T21:57:32.509Z,78.30
2022-07-30T22:00:08.198Z,78.50
2022-07-30T22:02:37.837Z,78.80
2022-07-30T22:05:21.826Z,78.90
2022-07-30T22:07:51.992Z,79.00
2022-07-30T22:10:21.491Z,79.20
2022-07-30T22:12:50.143Z,79.30
2022-07-30T22:15:20.658Z,79.50
2022-07-30T22:17:58.413Z,79.60
2022-07-30T22:20:29.845Z,79.80
2022-07-30T22:23:00.564Z,80.00
2022-07-30T22:25:41.703Z,80.20
2022-07-30T22:28:12.355Z,81.00
2022-07-30T22:30:43.451Z,80.40
2022-07-30T22:33:13.938Z,80.70
2022-07-30T22:35:46.710Z,80.90
2022-07-30T22:38:19.564Z,81.10
2022-07-30T22:40:47.945Z,81.50
2022-07-30T22:43:17.657Z,81.60
2022-07-30T22:45:48.764Z,82.10
2022-07-30T22:48:19.682Z,82.30
2022-07-30T22:50:53.451Z,82.40
2022-07-30T22:54:10.708Z,82.30
2022-07-30T22:58:57.957Z,82.40
2022-07-30T23:01:28.132Z,82.50
2022-07-30T23:03:56.236Z,82.70
2022-07-30T23:06:24.424Z,82.60
2022-07-30T23:08:52.509Z,82.70
2022-07-30T23:11:21.190Z,82.60
2022-07-30T23:12:16.479Z,67.30
2022-07-30T23:12:34.370Z,82.40
2022-07-30T23:13:53.769Z,82.70
2022-07-30T23:16:22.116Z,82.60
2022-07-30T23:18:51.694Z,82.60
2022-07-30T23:21:19.877Z,82.60
2022-07-30T23:23:48.273Z,82.50
2022-07-30T23:26:16.406Z,82.60
2022-07-30T23:28:44.508Z,82.70
2022-07-30T23:31:12.592Z,82.80
2022-07-30T23:33:41.889Z,83.50
2022-07-30T23:36:11.697Z,83.00
2022-07-30T23:38:39.833Z,83.10
2022-07-30T23:41:07.984Z,83.90
2022-07-30T23:43:36.209Z,83.20
2022-07-30T23:46:05.130Z,83.20
2022-07-30T23:48:39.022Z,83.50
2022-07-30T23:51:07.204Z,83.50
2022-07-30T23:53:36.781Z,84.40
2022-07-30T23:56:05.413Z,83.80
2022-07-30T23:58:34.282Z,83.90
